createdAt,value
2023-04-16T00:01:43.951Z,52
2023-04-16T00:04:14.739Z,40
2023-04-16T00:06:45.256Z,45
2023-04-16T00:09:16.542Z,47
2023-04-16T00:11:47.275Z,47
2023-04-16T00:14:18.261Z,44
2023-04-16T00:16:49.875Z,38
2023-04-16T00:19:20.787Z,41
2023-04-16T00:21:51.570Z,43
2023-04-16T00:24:22.745Z,44
2023-04-16T00:26:53.780Z,41
2023-04-16T00:29:25.201Z,52
2023-04-16T00:31:56.264Z,47
2023-04-16T00:34:27.281Z,47
2023-04-16T00:36:58.668Z,48
2023-04-16T00:39:29.632Z,47
2023-04-16T00:42:00.503Z,46
2023-04-16T00:44:31.425Z,45
2023-04-16T00:47:02.319Z,45
2023-04-16T00:49:33.321Z,39
2023-04-16T00:52:04.088Z,52
2023-04-16T00:54:34.771Z,41
2023-04-16T00:57:05.500Z,39
2023-04-16T00:59:36.181Z,41
2023-04-16T01:02:06.251Z,32
2023-04-16T01:04:37.103Z,36
2023-04-16T01:07:08.089Z,36
2023-04-16T01:09:39.065Z,37
2023-04-16T01:12:10.108Z,37
2023-04-16T01:14:40.846Z,37
2023-04-16T01:17:11.987Z,35
2023-04-16T01:19:43.318Z,36
2023-04-16T01:22:14.081Z,40
2023-04-16T01:24:44.950Z,40
2023-04-16T01:27:15.755Z,41
2023-04-16T01:29:46.802Z,38
2023-04-16T01:32:17.334Z,37
2023-04-16T01:34:48.206Z,40
2023-04-16T01:37:18.611Z,43
2023-04-16T01:39:49.604Z,32
2023-04-16T01:42:22.910Z,31
2023-04-16T01:44:53.503Z,35
2023-04-16T01:47:24.205Z,35
2023-04-16T01:49:55.034Z,37
2023-04-16T01:52:26.026Z,40
2023-04-16T01:54:56.642Z,38
2023-04-16T01:57:26.972Z,32
2023-04-16T01:59:58.008Z,38
2023-04-16T02:02:29.093Z,36
2023-04-16T02:04:59.826Z,44
2023-04-16T02:07:30.397Z,31
2023-04-16T02:12:45.070Z,36
2023-04-16T02:15:15.815Z,40
2023-04-16T02:17:46.892Z,44
2023-04-16T02:20:17.793Z,38
2023-04-16T02:22:49.848Z,32
2023-04-16T02:25:20.447Z,33
2023-04-16T02:27:51.196Z,30
2023-04-16T02:30:22.174Z,36
2023-04-16T02:32:53.612Z,33
2023-04-16T02:35:24.535Z,30
2023-04-16T02:37:55.357Z,37
2023-04-16T02:40:26.246Z,36
2023-04-16T02:42:56.447Z,28
2023-04-16T02:45:27.276Z,33
2023-04-16T02:47:58.097Z,36
2023-04-16T02:50:29.573Z,32
2023-04-16T02:52:59.763Z,32
2023-04-16T02:55:30.211Z,37
2023-04-16T02:58:01.187Z,36
2023-04-16T03:00:31.932Z,33
2023-04-16T03:03:03.101Z,31
2023-04-16T03:05:33.875Z,32
2023-04-16T03:08:04.018Z,29
2023-04-16T03:10:35.089Z,35
2023-04-16T03:13:06.394Z,36
2023-04-16T03:15:36.830Z,27
2023-04-16T03:18:07.899Z,39
2023-04-16T03:20:44.190Z,31
2023-04-16T03:23:21.545Z,28
2023-04-16T03:25:52.391Z,27
2023-04-16T03:28:22.928Z,29
2023-04-16T03:30:54.902Z,36
2023-04-16T03:33:25.738Z,20
2023-04-16T03:35:56.750Z,28
2023-04-16T03:38:27.318Z,29
2023-04-16T03:40:58.116Z,32
2023-04-16T03:43:28.929Z,30
2023-04-16T03:46:00.394Z,42
2023-04-16T03:48:31.036Z,32
2023-04-16T03:51:02.286Z,32
2023-04-16T03:53:40.637Z,32
2023-04-16T03:56:11.681Z,36
2023-04-16T03:58:42.913Z,28
2023-04-16T04:01:13.631Z,29
2023-04-16T04:03:44.549Z,28
2023-04-16T04:06:15.010Z,31
2023-04-16T04:08:45.573Z,31
2023-04-16T04:11:16.500Z,27
2023-04-16T04:13:47.756Z,28
2023-04-16T04:16:18.382Z,34
2023-04-16T04:18:49.652Z,36
2023-04-16T04:21:20.431Z,43
2023-04-16T04:23:56.290Z,40
2023-04-16T04:26:26.917Z,28
2023-04-16T04:28:57.506Z,30
2023-04-16T04:34:07.381Z,28
2023-04-16T04:36:38.658Z,28
2023-04-16T04:39:09.931Z,29
2023-04-16T04:44:17.669Z,29
2023-04-16T04:46:48.202Z,25
2023-04-16T04:49:18.977Z,30
2023-04-16T04:51:49.755Z,35
2023-04-16T04:54:20.338Z,41
2023-04-16T04:56:50.978Z,30
2023-04-16T04:59:22.250Z,31
2023-04-16T05:01:53.118Z,70
2023-04-16T05:04:24.097Z,59
2023-04-16T05:06:55.041Z,64
2023-04-16T05:09:25.655Z,65
2023-04-16T05:11:56.358Z,61
2023-04-16T05:14:27.021Z,36
2023-04-16T05:16:57.981Z,31
2023-04-16T05:19:28.779Z,33
2023-04-16T05:21:59.581Z,35
2023-04-16T05:24:30.387Z,33
2023-04-16T05:27:01.142Z,34
2023-04-16T05:29:31.970Z,40
2023-04-16T05:32:05.692Z,44
2023-04-16T05:34:36.720Z,45
2023-04-16T05:37:07.492Z,44
2023-04-16T05:39:38.235Z,45
2023-04-16T05:42:08.560Z,40
2023-04-16T05:44:39.407Z,40
2023-04-16T05:47:11.111Z,36
2023-04-16T05:49:41.993Z,38
2023-04-16T05:52:13.312Z,41
2023-04-16T05:54:44.510Z,51
2023-04-16T05:57:15.905Z,46
2023-04-16T05:59:46.823Z,48
2023-04-16T06:02:17.568Z,50
2023-04-16T06:04:48.646Z,45
2023-04-16T06:07:19.820Z,56
2023-04-16T06:09:50.547Z,52
2023-04-16T06:12:21.052Z,79
2023-04-16T06:14:52.126Z,52
2023-04-16T06:17:24.166Z,47
2023-04-16T06:19:55.055Z,51
2023-04-16T06:22:24.579Z,50
2023-04-16T06:24:55.409Z,54
2023-04-16T06:27:26.335Z,54
2023-04-16T06:29:57.218Z,55
2023-04-16T06:32:30.465Z,42
2023-04-16T06:35:01.170Z,88
2023-04-16T06:37:32.310Z,68
2023-04-16T06:40:03.520Z,53
2023-04-16T06:42:35.325Z,66
2023-04-16T06:45:06.056Z,55
2023-04-16T06:47:36.588Z,57
2023-04-16T06:50:07.380Z,60
2023-04-16T06:52:38.314Z,59
2023-04-16T06:55:09.316Z,61
2023-04-16T06:57:40.729Z,57
2023-04-16T07:00:11.438Z,52
2023-04-16T07:02:42.773Z,52
2023-04-16T07:05:14.011Z,52
2023-04-16T07:07:44.533Z,64
2023-04-16T07:10:15.230Z,62
2023-04-16T07:12:45.968Z,65
2023-04-16T07:15:16.893Z,57
2023-04-16T07:17:47.755Z,64
2023-04-16T07:20:18.465Z,60
2023-04-16T07:22:49.360Z,61
2023-04-16T07:25:20.227Z,77
2023-04-16T07:27:51.226Z,73
2023-04-16T07:30:22.449Z,71
2023-04-16T07:32:53.342Z,94
2023-04-16T07:35:23.685Z,77
2023-04-16T07:37:54.766Z,65
2023-04-16T07:40:25.935Z,73
2023-04-16T07:42:56.460Z,60
2023-04-16T07:45:27.623Z,58
2023-04-16T07:47:58.145Z,58
2023-04-16T07:50:28.838Z,52
2023-04-16T07:52:59.652Z,56
2023-04-16T07:55:30.388Z,56
2023-04-16T07:58:01.231Z,48
2023-04-16T08:00:31.884Z,51
2023-04-16T08:03:03.278Z,52
2023-04-16T08:05:34.019Z,53
2023-04-16T08:08:04.575Z,40
2023-04-16T08:10:35.364Z,46
2023-04-16T08:13:05.898Z,42
2023-04-16T08:15:36.490Z,44
2023-04-16T08:18:07.538Z,56
2023-04-16T08:20:38.309Z,28
2023-04-16T08:23:09.270Z,31
2023-04-16T08:25:41.110Z,12
2023-04-16T08:28:12.261Z,21
2023-04-16T08:30:43.198Z,24
2023-04-16T08:33:14.099Z,41
2023-04-16T08:35:44.692Z,19
2023-04-16T08:38:15.709Z,17
2023-04-16T08:40:47.717Z,33
2023-04-16T08:43:18.477Z,25
2023-04-16T08:45:49.005Z,32
2023-04-16T08:48:20.129Z,23
2023-04-16T08:50:52.269Z,19
2023-04-16T08:53:22.569Z,17
2023-04-16T08:55:54.725Z,19
2023-04-16T08:58:25.737Z,17
2023-04-16T09:00:56.984Z,19
2023-04-16T09:03:27.538Z,18
2023-04-16T09:06:01.515Z,14
2023-04-16T09:08:32.383Z,16
2023-04-16T09:11:02.980Z,16
2023-04-16T09:13:33.634Z,13
2023-04-16T09:16:04.079Z,17
2023-04-16T09:18:35.487Z,16
2023-04-16T09:21:06.232Z,13
2023-04-16T09:23:36.718Z,15
2023-04-16T09:26:07.686Z,19
2023-04-16T09:28:38.483Z,13
2023-04-16T09:31:09.018Z,13
2023-04-16T09:33:39.652Z,15
2023-04-16T09:36:19.540Z,4
2023-04-16T09:38:49.756Z,11
2023-04-16T09:41:20.518Z,17
2023-04-16T09:43:52.326Z,16
2023-04-16T09:46:23.290Z,15
2023-04-16T09:48:53.459Z,9
2023-04-16T09:51:24.124Z,16
2023-04-16T09:53:54.442Z,12
2023-04-16T09:56:25.498Z,8
2023-04-16T09:58:58.490Z,19
2023-04-16T10:01:29.036Z,11
2023-04-16T10:04:05.382Z,4
2023-04-16T10:06:35.871Z,13
2023-04-16T10:09:06.210Z,16
2023-04-16T10:11:36.334Z,11
2023-04-16T10:14:07.194Z,11
2023-04-16T10:16:36.425Z,11
2023-04-16T10:19:05.507Z,13
2023-04-16T10:21:41.673Z,8
2023-04-16T10:24:16.234Z,8
2023-04-16T10:26:46.801Z,12
2023-04-16T10:29:17.407Z,12
2023-04-16T10:31:48.442Z,11
2023-04-16T10:34:19.634Z,11
2023-04-16T10:36:50.142Z,11
2023-04-16T10:39:20.779Z,13
2023-04-16T10:41:51.603Z,8
2023-04-16T10:44:22.265Z,11
2023-04-16T10:46:53.073Z,13
2023-04-16T10:49:23.713Z,15
2023-04-16T10:51:54.230Z,13
2023-04-16T10:54:24.854Z,11
2023-04-16T10:56:55.407Z,13
2023-04-16T10:59:25.919Z,20
2023-04-16T11:01:56.772Z,60
2023-04-16T11:04:27.583Z,49
2023-04-16T11:06:58.393Z,20
2023-04-16T11:09:27.659Z,32
2023-04-16T11:11:58.546Z,38
2023-04-16T11:14:29.637Z,19
2023-04-16T11:17:00.186Z,28
2023-04-16T11:19:31.038Z,19
2023-04-16T11:22:01.856Z,16
2023-04-16T11:24:32.597Z,16
2023-04-16T11:27:03.282Z,16
2023-04-16T11:29:34.019Z,16
2023-04-16T11:32:04.952Z,15
2023-04-16T11:34:35.551Z,18
2023-04-16T11:37:09.243Z,34
2023-04-16T11:39:39.857Z,15
2023-04-16T11:42:19.905Z,12
2023-04-16T11:44:50.404Z,15
2023-04-16T11:47:20.975Z,17
2023-04-16T11:49:51.417Z,19
2023-04-16T11:52:22.245Z,29
2023-04-16T11:54:53.619Z,21
2023-04-16T11:57:24.510Z,13
2023-04-16T12:00:01.186Z,13
2023-04-16T12:02:26.335Z,11
2023-04-16T12:04:56.685Z,16
2023-04-16T12:07:27.378Z,23
2023-04-16T12:09:58.750Z,28
2023-04-16T12:12:29.453Z,13
2023-04-16T12:15:04.171Z,12
2023-04-16T12:17:35.665Z,19
2023-04-16T12:20:09.946Z,9
2023-04-16T12:22:40.636Z,12
2023-04-16T12:25:15.391Z,14
2023-04-16T12:27:52.957Z,14
2023-04-16T12:30:20.679Z,22
2023-04-16T12:32:59.788Z,8
2023-04-16T12:35:38.880Z,16
2023-04-16T12:38:08.787Z,21
2023-04-16T12:40:39.592Z,16
2023-04-16T12:43:10.247Z,15
2023-04-16T12:45:41.974Z,14
2023-04-16T12:50:49.195Z,9
2023-04-16T12:53:19.907Z,9
2023-04-16T12:55:50.095Z,9
2023-04-16T12:58:21.102Z,8
2023-04-16T13:00:49.947Z,14
2023-04-16T13:03:21.994Z,14
2023-04-16T13:06:01.634Z,4
2023-04-16T13:08:31.779Z,12
2023-04-16T13:11:02.228Z,67
2023-04-16T13:13:32.940Z,21
2023-04-16T13:16:03.392Z,21
2023-04-16T13:18:33.912Z,24
2023-04-16T13:24:07.705Z,5
2023-04-16T13:34:34.825Z,22
2023-04-16T13:37:05.126Z,12
2023-04-16T13:39:35.613Z,11
2023-04-16T13:44:57.015Z,28
2023-04-16T13:47:27.734Z,27
2023-04-16T13:49:58.326Z,16
2023-04-16T13:52:28.958Z,40
2023-04-16T13:55:00.181Z,15
2023-04-16T13:57:30.112Z,28
2023-04-16T14:00:00.752Z,9
2023-04-16T14:02:31.458Z,5
2023-04-16T14:05:02.185Z,8
2023-04-16T14:07:32.541Z,24
2023-04-16T14:10:03.439Z,8
2023-04-16T14:12:34.302Z,9
2023-04-16T14:15:05.504Z,21
2023-04-16T14:17:36.179Z,11
2023-04-16T14:20:06.888Z,9
2023-04-16T14:22:37.918Z,12
2023-04-16T14:25:09.608Z,20
2023-04-16T14:30:38.202Z,26
2023-04-16T14:35:54.168Z,10
2023-04-16T14:38:30.382Z,2
2023-04-16T14:43:45.872Z,16
2023-04-16T14:46:16.312Z,8
2023-04-16T14:48:46.465Z,29
2023-04-16T14:56:32.789Z,10
2023-04-16T14:59:03.642Z,8
2023-04-16T15:01:43.409Z,4
2023-04-16T15:04:13.711Z,12
2023-04-16T15:06:44.290Z,9
2023-04-16T15:09:14.618Z,8
2023-04-16T15:11:45.149Z,20
2023-04-16T15:14:15.705Z,7
2023-04-16T15:16:55.974Z,4
2023-04-16T15:19:26.106Z,7
2023-04-16T15:22:02.490Z,7
2023-04-16T15:24:35.886Z,5
2023-04-16T15:29:57.398Z,6
2023-04-16T15:32:46.579Z,11
2023-04-16T15:35:25.239Z,4
2023-04-16T15:37:59.847Z,7
2023-04-16T15:40:30.722Z,8
2023-04-16T15:43:09.988Z,4
2023-04-16T15:45:40.233Z,5
2023-04-16T15:48:11.282Z,5
2023-04-16T15:50:41.434Z,7
2023-04-16T15:53:11.673Z,5
2023-04-16T15:55:44.735Z,8
2023-04-16T15:58:18.771Z,3
2023-04-16T16:00:49.054Z,5
2023-04-16T16:03:19.533Z,5
2023-04-16T16:05:54.169Z,4
2023-04-16T16:08:24.265Z,8
2023-04-16T16:10:54.525Z,11
2023-04-16T16:13:32.731Z,4
2023-04-16T16:16:04.437Z,7
2023-04-16T16:18:34.397Z,10
2023-04-16T16:21:05.560Z,8
2023-04-16T16:23:36.128Z,9
2023-04-16T16:26:06.805Z,9
2023-04-16T16:28:37.650Z,7
2023-04-16T16:31:17.478Z,3
2023-04-16T16:33:47.500Z,7
2023-04-16T16:36:18.203Z,5
2023-04-16T16:38:48.929Z,7
2023-04-16T16:41:19.676Z,7
2023-04-16T16:43:50.299Z,8
2023-04-16T16:46:21.036Z,7
2023-04-16T16:48:51.729Z,8
2023-04-16T16:51:22.218Z,5
2023-04-16T16:53:52.535Z,23
2023-04-16T16:56:23.161Z,7
2023-04-16T16:58:54.072Z,5
2023-04-16T17:01:24.649Z,9
2023-04-16T17:03:55.360Z,8
2023-04-16T17:06:25.915Z,7
2023-04-16T17:09:00.307Z,8
2023-04-16T17:11:30.570Z,8
2023-04-16T17:14:01.042Z,23
2023-04-16T17:16:31.956Z,12
2023-04-16T17:19:03.622Z,16
2023-04-16T17:21:34.117Z,12
2023-04-16T17:24:04.631Z,16
2023-04-16T17:26:35.315Z,13
2023-04-16T17:29:07.139Z,8
2023-04-16T17:31:37.399Z,8
2023-04-16T17:34:16.142Z,8
2023-04-16T17:36:46.962Z,10
2023-04-16T17:39:21.084Z,8
2023-04-16T17:41:51.641Z,8
2023-04-16T17:44:22.837Z,6
2023-04-16T17:46:53.426Z,8
2023-04-16T17:49:24.386Z,4
2023-04-16T17:51:55.783Z,6
2023-04-16T17:54:26.237Z,12
2023-04-16T17:56:58.185Z,9
2023-04-16T17:59:28.382Z,16
2023-04-16T18:01:58.654Z,8
2023-04-16T18:04:28.897Z,8
2023-04-16T18:06:59.563Z,6
2023-04-16T18:09:30.120Z,7
2023-04-16T18:12:00.501Z,7
2023-04-16T18:14:31.461Z,10
2023-04-16T18:17:04.287Z,8
2023-04-16T18:19:33.888Z,12
2023-04-16T18:22:04.102Z,12
2023-04-16T18:24:35.055Z,8
2023-04-16T18:27:05.890Z,8
2023-04-16T18:29:38.776Z,9
2023-04-16T18:32:09.796Z,11
2023-04-16T18:34:37.025Z,8
2023-04-16T18:37:07.533Z,8
2023-04-16T18:39:39.730Z,8
2023-04-16T18:42:10.050Z,7
2023-04-16T18:44:40.399Z,12
2023-04-16T18:47:11.438Z,12
2023-04-16T18:49:41.723Z,12
2023-04-16T18:52:12.090Z,9
2023-04-16T18:54:42.532Z,9
2023-04-16T18:57:13.490Z,8
2023-04-16T18:59:43.948Z,16
2023-04-16T19:02:14.663Z,9
2023-04-16T19:04:45.612Z,17
2023-04-16T19:07:14.659Z,11
2023-04-16T19:09:44.999Z,11
2023-04-16T19:12:15.044Z,11
2023-04-16T19:14:43.981Z,11
2023-04-16T19:17:14.651Z,9
2023-04-16T19:19:44.853Z,9
2023-04-16T19:22:15.314Z,9
2023-04-16T19:24:44.601Z,15
2023-04-16T19:27:15.235Z,9
2023-04-16T19:29:44.169Z,15
2023-04-16T19:32:15.404Z,9
2023-04-16T19:34:44.383Z,11
2023-04-16T19:37:14.976Z,8
2023-04-16T19:39:45.738Z,18
2023-04-16T19:42:16.587Z,11
2023-04-16T19:44:47.014Z,13
2023-04-16T19:47:17.744Z,12
2023-04-16T19:49:48.322Z,11
2023-04-16T19:52:19.731Z,16
2023-04-16T19:57:21.466Z,20
2023-04-16T19:59:54.039Z,16
2023-04-16T20:05:03.001Z,10
2023-04-16T20:07:36.370Z,12
2023-04-16T20:10:05.057Z,16
2023-04-16T20:15:35.502Z,9
2023-04-16T20:18:06.010Z,11
2023-04-16T20:20:36.162Z,11
2023-04-16T20:23:07.338Z,11
2023-04-16T20:25:37.945Z,16
2023-04-16T20:28:08.354Z,13
2023-04-16T20:30:39.867Z,12
2023-04-16T20:33:10.711Z,12
2023-04-16T20:35:41.431Z,12
2023-04-16T20:38:12.249Z,11
2023-04-16T20:40:43.577Z,10
2023-04-16T20:43:14.744Z,10
2023-04-16T20:45:45.627Z,15
2023-04-16T20:48:16.048Z,20
2023-04-16T20:50:46.895Z,18
2023-04-16T20:53:17.214Z,16
2023-04-16T20:55:47.421Z,16
2023-04-16T20:58:22.348Z,16
2023-04-16T21:00:53.320Z,17
2023-04-16T21:03:24.137Z,18
2023-04-16T21:05:54.965Z,16
2023-04-16T21:08:25.584Z,20
2023-04-16T21:10:56.610Z,16
2023-04-16T21:13:27.419Z,15
2023-04-16T21:15:58.575Z,21
2023-04-16T21:18:29.245Z,24
2023-04-16T21:20:59.885Z,25
2023-04-16T21:23:36.322Z,21
2023-04-16T21:26:06.720Z,16
2023-04-16T21:28:37.381Z,20
2023-04-16T21:31:08.457Z,23
2023-04-16T21:33:42.581Z,24
2023-04-16T21:36:13.852Z,28
2023-04-16T21:38:44.752Z,26
2023-04-16T21:41:15.772Z,26
2023-04-16T21:43:46.741Z,24
2023-04-16T21:46:17.603Z,24
2023-04-16T21:48:48.247Z,30
2023-04-16T21:51:19.089Z,23
2023-04-16T21:53:49.833Z,25
2023-04-16T21:56:20.522Z,21
2023-04-16T21:58:51.284Z,21
2023-04-16T22:01:22.878Z,23
2023-04-16T22:03:53.904Z,22
2023-04-16T22:06:24.594Z,36
2023-04-16T22:08:55.183Z,28
2023-04-16T22:11:25.987Z,31
2023-04-16T22:13:56.481Z,28
2023-04-16T22:16:27.102Z,36
2023-04-16T22:18:58.219Z,40
2023-04-16T22:21:28.773Z,41
2023-04-16T22:23:59.375Z,36
2023-04-16T22:26:29.782Z,39
2023-04-16T22:29:00.839Z,36
2023-04-16T22:31:31.413Z,35
2023-04-16T22:34:02.180Z,39
2023-04-16T22:36:31.050Z,29
2023-04-16T22:39:01.927Z,28
2023-04-16T22:41:32.271Z,29
2023-04-16T22:44:03.123Z,24
2023-04-16T22:46:35.134Z,22
2023-04-16T22:49:06.242Z,20
2023-04-16T22:51:36.710Z,23
2023-04-16T22:54:08.334Z,20
2023-04-16T22:56:39.325Z,16
2023-04-16T22:59:10.355Z,17
2023-04-16T23:01:40.508Z,19
2023-04-16T23:04:11.521Z,20
2023-04-16T23:06:42.505Z,16
2023-04-16T23:09:14.202Z,16
2023-04-16T23:11:44.416Z,16
2023-04-16T23:14:16.770Z,20
2023-04-16T23:16:46.787Z,23
2023-04-16T23:19:17.094Z,25
2023-04-16T23:21:48.249Z,18
2023-04-16T23:24:18.821Z,16
2023-04-16T23:26:49.325Z,16
2023-04-16T23:29:19.867Z,20
2023-04-16T23:31:51.227Z,17
2023-04-16T23:34:22.845Z,16
2023-04-16T23:36:53.993Z,19
2023-04-16T23:39:25.175Z,20
2023-04-16T23:41:56.582Z,16
2023-04-16T23:44:27.640Z,17
2023-04-16T23:46:58.624Z,19
2023-04-16T23:49:29.661Z,20
2023-04-16T23:52:00.886Z,20
2023-04-16T23:54:31.830Z,19
2023-04-16T23:57:02.911Z,20
2023-04-16T23:59:33.492Z,21
